sensor_id;sensor_type;location;lat;lon;timestamp;pressure;altitude;pressure_sealevel;temperature;humidity
5877;BME280;2964;42.144;24.730;2023-02-22T00:02:19;145005.53;;;13.80;36.19
5877;BME280;2964;42.144;24.730;2023-02-22T00:04:53;145063.47;;;14.04;35.80
5877;BME280;2964;42.144;24.730;2023-02-22T00:07:21;145025.66;;;13.88;36.02
5877;BME280;2964;42.144;24.730;2023-02-22T00:09:48;145025.66;;;13.88;35.98
5877;BME280;2964;42.144;24.730;2023-02-22T00:12:15;145035.78;;;13.93;35.67
5877;BME280;2964;42.144;24.730;2023-02-22T00:14:41;145057.16;;;14.01;35.57
5877;BME280;2964;42.144;24.730;2023-02-22T00:17:08;145097.47;;;14.18;35.14
5877;BME280;2964;42.144;24.730;2023-02-22T00:19:37;145081.13;;;14.11;35.35
5877;BME280;2964;42.144;24.730;2023-02-22T00:22:04;145049.63;;;13.98;35.54
5877;BME280;2964;42.144;24.730;2023-02-22T00:24:32;145030.69;;;13.90;35.70
5877;BME280;2964;42.144;24.730;2023-02-22T00:27:00;145035.78;;;13.93;35.47
5877;BME280;2964;42.144;24.730;2023-02-22T00:29:28;145039.50;;;13.94;35.51
5877;BME280;2964;42.144;24.730;2023-02-22T00:31:54;145102.50;;;14.20;35.45
5877;BME280;2964;42.144;24.730;2023-02-22T00:34:21;145082.38;;;14.12;35.26
5877;BME280;2964;42.144;24.730;2023-02-22T00:36:49;145069.75;;;14.06;35.33
5877;BME280;2964;42.144;24.730;2023-02-22T00:39:16;145113.84;;;14.24;35.11
5877;BME280;2964;42.144;24.730;2023-02-22T00:41:44;145128.97;;;14.31;34.87
5877;BME280;2964;42.144;24.730;2023-02-22T00:44:11;145137.78;;;14.34;34.92
5877;BME280;2964;42.144;24.730;2023-02-22T00:46:38;145136.53;;;14.34;35.01
5877;BME280;2964;42.144;24.730;2023-02-22T00:49:05;145140.31;;;14.35;34.89
5877;BME280;2964;42.144;24.730;2023-02-22T00:51:32;145098.72;;;14.18;35.21
5877;BME280;2964;42.144;24.730;2023-02-22T00:53:59;145152.88;;;14.40;35.10
5877;BME280;2964;42.144;24.730;2023-02-22T00:56:26;145091.19;;;14.15;35.32
5877;BME280;2964;42.144;24.730;2023-02-22T00:58:54;145073.53;;;14.08;35.74
5877;BME280;2964;42.144;24.730;2023-02-22T01:01:21;145076.03;;;14.09;35.67
5877;BME280;2964;42.144;24.730;2023-02-22T01:03:48;145067.25;;;14.05;35.64
5877;BME280;2964;42.144;24.730;2023-02-22T01:06:15;145084.84;;;14.13;35.98
5877;BME280;2964;42.144;24.730;2023-02-22T01:08:43;145064.72;;;14.04;36.29
5877;BME280;2964;42.144;24.730;2023-02-22T01:11:10;145039.50;;;13.94;36.46
5877;BME280;2964;42.144;24.730;2023-02-22T01:13:37;145048.34;;;13.98;36.30
5877;BME280;2964;42.144;24.730;2023-02-22T01:16:05;145043.28;;;13.96;36.42
5877;BME280;2964;42.144;24.730;2023-02-22T01:18:33;144992.94;;;13.75;36.59
5877;BME280;2964;42.144;24.730;2023-02-22T01:21:00;145004.28;;;13.80;36.72
5877;BME280;2964;42.144;24.730;2023-02-22T01:23:27;145032.00;;;13.91;36.55
5877;BME280;2964;42.144;24.730;2023-02-22T01:25:53;145014.34;;;13.84;36.47
5877;BME280;2964;42.144;24.730;2023-02-22T01:28:20;145006.78;;;13.81;36.42
5877;BME280;2964;42.144;24.730;2023-02-22T01:30:47;145014.34;;;13.84;36.67
5877;BME280;2964;42.144;24.730;2023-02-22T01:33:16;144979.09;;;13.69;36.78
5877;BME280;2964;42.144;24.730;2023-02-22T01:35:43;144995.47;;;13.76;36.57
5877;BME280;2964;42.144;24.730;2023-02-22T01:38:10;145038.28;;;13.94;36.61
5877;BME280;2964;42.144;24.730;2023-02-22T01:40:39;145021.94;;;13.87;36.52
5877;BME280;2964;42.144;24.730;2023-02-22T01:43:15;145024.41;;;13.88;36.44
5877;BME280;2964;42.144;24.730;2023-02-22T01:46:00;144999.25;;;13.78;36.26
5877;BME280;2964;42.144;24.730;2023-02-22T01:48:36;145043.28;;;13.96;36.10
5877;BME280;2964;42.144;24.730;2023-02-22T01:51:08;145037.03;;;13.93;36.22
5877;BME280;2964;42.144;24.730;2023-02-22T01:53:43;145049.63;;;13.98;36.47
5877;BME280;2964;42.144;24.730;2023-02-22T01:56:13;145071.00;;;14.07;36.06
5877;BME280;2964;42.144;24.730;2023-02-22T01:58:42;144796.53;;;12.95;35.78
5877;BME280;2964;42.144;24.730;2023-02-22T02:01:10;145059.69;;;14.02;36.01
5877;BME280;2964;42.144;24.730;2023-02-22T02:03:39;145098.72;;;14.18;35.78
5877;BME280;2964;42.144;24.730;2023-02-22T02:06:10;145089.94;;;14.15;35.65
5877;BME280;2964;42.144;24.730;2023-02-22T02:08:45;145067.25;;;14.05;35.96
5877;BME280;2964;42.144;24.730;2023-02-22T02:11:18;145097.47;;;14.18;35.87
5877;BME280;2964;42.144;24.730;2023-02-22T02:13:45;145079.81;;;14.10;35.89
5877;BME280;2964;42.144;24.730;2023-02-22T02:16:12;145094.97;;;14.17;35.93
5877;BME280;2964;42.144;24.730;2023-02-22T02:18:40;145020.63;;;13.86;36.26
5877;BME280;2964;42.144;24.730;2023-02-22T02:24:31;145010.56;;;13.82;36.52
5877;BME280;2964;42.144;24.730;2023-02-22T02:27:10;144979.09;;;13.69;36.86
5877;BME280;2964;42.144;24.730;2023-02-22T02:30:07;145014.34;;;13.84;36.41
5877;BME280;2964;42.144;24.730;2023-02-22T02:32:50;144936.31;;;13.52;36.32
5877;BME280;2964;42.144;24.730;2023-02-22T02:35:24;144868.28;;;13.24;37.71
5877;BME280;2964;42.144;24.730;2023-02-22T02:37:56;144805.34;;;12.99;38.25
5877;BME280;2964;42.144;24.730;2023-02-22T02:40:31;144797.78;;;12.96;38.16
5877;BME280;2964;42.144;24.730;2023-02-22T02:43:06;144828.00;;;13.08;37.85
5877;BME280;2964;42.144;24.730;2023-02-22T02:45:40;144874.56;;;13.27;37.77
5877;BME280;2964;42.144;24.730;2023-02-22T02:48:13;144843.06;;;13.14;38.21
5877;BME280;2964;42.144;24.730;2023-02-22T02:50:43;144873.31;;;13.26;37.79
5877;BME280;2964;42.144;24.730;2023-02-22T02:53:14;144742.41;;;12.73;38.67
5877;BME280;2964;42.144;24.730;2023-02-22T02:55:43;144809.06;;;13.00;38.16
5877;BME280;2964;42.144;24.730;2023-02-22T02:58:17;144752.47;;;12.77;38.53
5877;BME280;2964;42.144;24.730;2023-02-22T03:00:45;144872.00;;;13.26;37.73
5877;BME280;2964;42.144;24.730;2023-02-22T03:03:32;144810.38;;;13.01;38.08
5877;BME280;2964;42.144;24.730;2023-02-22T03:06:17;144791.50;;;12.93;38.23
5877;BME280;2964;42.144;24.730;2023-02-22T03:08:50;144782.69;;;12.89;38.20
5877;BME280;2964;42.144;24.730;2023-02-22T03:11:21;144817.88;;;13.04;37.90
5877;BME280;2964;42.144;24.730;2023-02-22T03:13:55;144737.38;;;12.71;38.97
5877;BME280;2964;42.144;24.730;2023-02-22T03:16:32;144616.63;;;12.22;39.65
5877;BME280;2964;42.144;24.730;2023-02-22T03:19:06;144566.31;;;12.01;40.36
5877;BME280;2964;42.144;24.730;2023-02-22T03:21:41;144422.94;;;11.43;41.39
5877;BME280;2964;42.144;24.730;2023-02-22T03:24:16;144468.19;;;11.61;41.44
5877;BME280;2964;42.144;24.730;2023-02-22T03:26:48;144460.63;;;11.58;41.26
5877;BME280;2964;42.144;24.730;2023-02-22T03:29:19;144518.47;;;11.82;41.13
5877;BME280;2964;42.144;24.730;2023-02-22T03:31:52;144513.44;;;11.79;40.89
5877;BME280;2964;42.144;24.730;2023-02-22T03:34:29;144509.66;;;11.78;40.87
5877;BME280;2964;42.144;24.730;2023-02-22T03:37:02;144558.75;;;11.98;40.48
5877;BME280;2964;42.144;24.730;2023-02-22T03:39:36;144489.56;;;11.70;40.80
5877;BME280;2964;42.144;24.730;2023-02-22T03:42:07;144434.25;;;11.47;41.53
5877;BME280;2964;42.144;24.730;2023-02-22T03:44:37;144306.06;;;10.95;42.72
5877;BME280;2964;42.144;24.730;2023-02-22T03:47:08;144402.84;;;11.34;42.33
5877;BME280;2964;42.144;24.730;2023-02-22T03:49:43;144317.38;;;10.99;42.63
5877;BME280;2964;42.144;24.730;2023-02-22T03:52:12;144367.63;;;11.20;42.38
5877;BME280;2964;42.144;24.730;2023-02-22T03:54:39;144318.63;;;11.00;42.67
5877;BME280;2964;42.144;24.730;2023-02-22T03:57:11;144337.47;;;11.08;42.07
5877;BME280;2964;42.144;24.730;2023-02-22T03:59:40;144360.09;;;11.17;42.79
5877;BME280;2964;42.144;24.730;2023-02-22T04:02:06;144377.69;;;11.24;42.08
5877;BME280;2964;42.144;24.730;2023-02-22T04:04:33;144380.22;;;11.25;41.99
5877;BME280;2964;42.144;24.730;2023-02-22T04:07:01;144387.72;;;11.28;41.84
5877;BME280;2964;42.144;24.730;2023-02-22T04:09:28;144380.22;;;11.25;41.66
5877;BME280;2964;42.144;24.730;2023-02-22T04:11:55;144377.69;;;11.24;41.99
5877;BME280;2964;42.144;24.730;2023-02-22T04:14:21;144390.25;;;11.29;42.23
5877;BME280;2964;42.144;24.730;2023-02-22T04:16:48;144277.16;;;10.83;42.62
5877;BME280;2964;42.144;24.730;2023-02-22T04:19:15;144254.56;;;10.74;42.65
5877;BME280;2964;42.144;24.730;2023-02-22T04:21:42;144396.53;;;11.32;41.89
5877;BME280;2964;42.144;24.730;2023-02-22T04:24:10;144376.44;;;11.24;42.06
5877;BME280;2964;42.144;24.730;2023-02-22T04:26:36;144370.13;;;11.21;41.64
5877;BME280;2964;42.144;24.730;2023-02-22T04:29:03;144395.28;;;11.31;41.57
5877;BME280;2964;42.144;24.730;2023-02-22T04:31:30;144385.25;;;11.27;41.62
5877;BME280;2964;42.144;24.730;2023-02-22T04:33:58;144312.34;;;10.97;42.09
5877;BME280;2964;42.144;24.730;2023-02-22T04:36:25;144307.28;;;10.95;42.14
5877;BME280;2964;42.144;24.730;2023-02-22T04:38:51;144392.75;;;11.30;41.77
5877;BME280;2964;42.144;24.730;2023-02-22T04:41:20;144429.19;;;11.45;40.84
5877;BME280;2964;42.144;24.730;2023-02-22T04:43:46;144471.97;;;11.63;40.89
5877;BME280;2964;42.144;24.730;2023-02-22T04:46:13;144391.50;;;11.30;41.13
5877;BME280;2964;42.144;24.730;2023-02-22T04:48:40;144473.19;;;11.63;41.47
5877;BME280;2964;42.144;24.730;2023-02-22T04:51:06;144395.28;;;11.31;42.52
5877;BME280;2964;42.144;24.730;2023-02-22T04:53:35;144430.50;;;11.46;41.71
5877;BME280;2964;42.144;24.730;2023-02-22T04:56:02;144459.38;;;11.57;41.31
5877;BME280;2964;42.144;24.730;2023-02-22T04:58:30;144400.31;;;11.33;42.41
5877;BME280;2964;42.144;24.730;2023-02-22T05:00:59;144463.16;;;11.59;41.71
5877;BME280;2964;42.144;24.730;2023-02-22T05:03:27;144455.59;;;11.56;41.48
5877;BME280;2964;42.144;24.730;2023-02-22T05:05:54;144458.13;;;11.57;41.68
5877;BME280;2964;42.144;24.730;2023-02-22T05:08:21;144439.28;;;11.49;42.09
5877;BME280;2964;42.144;24.730;2023-02-22T05:10:47;144474.44;;;11.64;41.49
5877;BME280;2964;42.144;24.730;2023-02-22T05:13:14;144471.97;;;11.63;41.40
5877;BME280;2964;42.144;24.730;2023-02-22T05:15:42;144505.88;;;11.76;40.66
5877;BME280;2964;42.144;24.730;2023-02-22T05:18:09;144551.19;;;11.95;40.30
5877;BME280;2964;42.144;24.730;2023-02-22T05:20:36;144588.94;;;12.10;40.08
5877;BME280;2964;42.144;24.730;2023-02-22T05:23:03;144536.06;;;11.89;40.36
5877;BME280;2964;42.144;24.730;2023-02-22T05:25:31;144576.38;;;12.05;40.19
5877;BME280;2964;42.144;24.730;2023-02-22T05:28:00;144620.41;;;12.23;39.08
5877;BME280;2964;42.144;24.730;2023-02-22T05:30:29;144689.56;;;12.51;38.24
5877;BME280;2964;42.144;24.730;2023-02-22T05:32:58;144682.00;;;12.48;38.40
5877;BME280;2964;42.144;24.730;2023-02-22T05:35:26;144736.09;;;12.70;38.98
5877;BME280;2964;42.144;24.730;2023-02-22T05:37:53;144707.19;;;12.59;38.28
5877;BME280;2964;42.144;24.730;2023-02-22T05:40:22;144690.81;;;12.52;38.33
5877;BME280;2964;42.144;24.730;2023-02-22T05:42:50;144742.41;;;12.73;38.53
5877;BME280;2964;42.144;24.730;2023-02-22T05:45:19;144792.75;;;12.93;37.73
5877;BME280;2964;42.144;24.730;2023-02-22T05:47:46;144761.28;;;12.81;37.80
5877;BME280;2964;42.144;24.730;2023-02-22T05:50:14;144802.81;;;12.98;38.20
5877;BME280;2964;42.144;24.730;2023-02-22T05:52:41;144885.91;;;13.31;37.41
5877;BME280;2964;42.144;24.730;2023-02-22T05:55:10;144870.75;;;13.25;37.57
5877;BME280;2964;42.144;24.730;2023-02-22T05:57:38;144911.09;;;13.42;37.44
5877;BME280;2964;42.144;24.730;2023-02-22T06:00:07;144956.41;;;13.60;36.90
5877;BME280;2964;42.144;24.730;2023-02-22T06:02:34;144989.16;;;13.74;37.26
5877;BME280;2964;42.144;24.730;2023-02-22T06:05:01;145020.63;;;13.86;36.93
5877;BME280;2964;42.144;24.730;2023-02-22T06:07:29;144989.16;;;13.74;37.23
5877;BME280;2964;42.144;24.730;2023-02-22T06:09:56;144991.69;;;13.75;37.57
5877;BME280;2964;42.144;24.730;2023-02-22T06:12:22;145016.84;;;13.85;37.49
5877;BME280;2964;42.144;24.730;2023-02-22T06:14:49;145034.47;;;13.92;37.17
5877;BME280;2964;42.144;24.730;2023-02-22T06:17:16;145005.53;;;13.80;37.26
5877;BME280;2964;42.144;24.730;2023-02-22T06:19:42;145053.38;;;14.00;36.67
5877;BME280;2964;42.144;24.730;2023-02-22T06:22:15;145092.44;;;14.16;36.44
5877;BME280;2964;42.144;24.730;2023-02-22T06:24:43;145037.03;;;13.93;37.13
5877;BME280;2964;42.144;24.730;2023-02-22T06:27:10;145082.38;;;14.12;36.79
5877;BME280;2964;42.144;24.730;2023-02-22T06:29:37;145088.63;;;14.14;36.69
5877;BME280;2964;42.144;24.730;2023-02-22T06:32:04;145107.53;;;14.22;36.73
5877;BME280;2964;42.144;24.730;2023-02-22T06:34:30;145040.81;;;13.95;37.13
5877;BME280;2964;42.144;24.730;2023-02-22T06:36:57;145016.84;;;13.85;37.56
5877;BME280;2964;42.144;24.730;2023-02-22T06:39:24;144997.97;;;13.77;37.59
5877;BME280;2964;42.144;24.730;2023-02-22T06:41:52;145006.78;;;13.81;37.63
5877;BME280;2964;42.144;24.730;2023-02-22T06:44:22;145020.63;;;13.86;37.18
5877;BME280;2964;42.144;24.730;2023-02-22T06:46:49;144964.00;;;13.63;37.75
5877;BME280;2964;42.144;24.730;2023-02-22T06:49:17;144984.13;;;13.71;37.91
5877;BME280;2964;42.144;24.730;2023-02-22T06:51:44;145126.47;;;14.29;36.95
5877;BME280;2964;42.144;24.730;2023-02-22T06:54:12;145202.06;;;14.60;36.10
5877;BME280;2964;42.144;24.730;2023-02-22T06:56:39;145309.22;;;15.04;35.71
5877;BME280;2964;42.144;24.730;2023-02-22T06:59:07;145475.66;;;15.72;34.95
5877;BME280;2964;42.144;24.730;2023-02-22T07:01:34;145622.00;;;16.31;33.87
5877;BME280;2964;42.144;24.730;2023-02-22T07:04:01;145731.78;;;16.76;32.86
5877;BME280;2964;42.144;24.730;2023-02-22T07:06:28;145887.09;;;17.39;32.12
5877;BME280;2964;42.144;24.730;2023-02-22T07:08:54;145936.34;;;17.59;32.05
5877;BME280;2964;42.144;24.730;2023-02-22T07:11:21;145993.19;;;17.82;31.82
5877;BME280;2964;42.144;24.730;2023-02-22T07:13:48;146014.72;;;17.91;31.27
5877;BME280;2964;42.144;24.730;2023-02-22T07:16:16;145899.72;;;17.44;31.73
5877;BME280;2964;42.144;24.730;2023-02-22T07:18:43;146021.03;;;17.93;31.36
5877;BME280;2964;42.144;24.730;2023-02-22T07:21:10;146122.09;;;18.35;30.66
5877;BME280;2964;42.144;24.730;2023-02-22T07:23:37;146120.84;;;18.34;30.24
5877;BME280;2964;42.144;24.730;2023-02-22T07:26:04;146239.66;;;18.82;30.14
5877;BME280;2964;42.144;24.730;2023-02-22T07:28:31;146373.69;;;19.37;29.60
5877;BME280;2964;42.144;24.730;2023-02-22T07:30:57;146473.66;;;19.77;28.51
5877;BME280;2964;42.144;24.730;2023-02-22T07:33:27;146415.44;;;19.54;29.16
5877;BME280;2964;42.144;24.730;2023-02-22T07:35:53;146488.81;;;19.83;28.01
5877;BME280;2964;42.144;24.730;2023-02-22T07:38:20;146764.75;;;20.95;26.81
5877;BME280;2964;42.144;24.730;2023-02-22T07:40:47;146663.41;;;20.54;27.13
5877;BME280;2964;42.144;24.730;2023-02-22T07:43:15;146554.59;;;20.10;27.80
5877;BME280;2964;42.144;24.730;2023-02-22T07:45:43;146574.84;;;20.18;26.77
5877;BME280;2964;42.144;24.730;2023-02-22T07:48:11;146768.50;;;20.97;26.54
5877;BME280;2964;42.144;24.730;2023-02-22T07:50:39;146879.94;;;21.42;26.16
5877;BME280;2964;42.144;24.730;2023-02-22T07:53:10;146886.31;;;21.45;25.85
5877;BME280;2964;42.144;24.730;2023-02-22T07:55:37;146858.41;;;21.33;25.96
5877;BME280;2964;42.144;24.730;2023-02-22T07:58:06;146964.88;;;21.76;25.10
5877;BME280;2964;42.144;24.730;2023-02-22T08:00:35;146945.81;;;21.69;25.58
5877;BME280;2964;42.144;24.730;2023-02-22T08:03:04;147133.41;;;22.45;25.24
5877;BME280;2964;42.144;24.730;2023-02-22T08:05:32;147337.50;;;23.27;24.73
5877;BME280;2964;42.144;24.730;2023-02-22T08:08:01;147289.34;;;23.08;23.88
5877;BME280;2964;42.144;24.730;2023-02-22T08:10:28;147294.41;;;23.10;23.81
5877;BME280;2964;42.144;24.730;2023-02-22T08:12:55;147061.13;;;22.15;24.55
5877;BME280;2964;42.144;24.730;2023-02-22T08:15:24;147162.53;;;22.57;24.68
5877;BME280;2964;42.144;24.730;2023-02-22T08:17:53;147242.41;;;22.89;24.60
5877;BME280;2964;42.144;24.730;2023-02-22T08:20:20;147175.22;;;22.62;24.32
5877;BME280;2964;42.144;24.730;2023-02-22T08:22:47;147225.91;;;22.82;24.34
5877;BME280;2964;42.144;24.730;2023-02-22T08:25:16;147071.25;;;22.20;25.19
5877;BME280;2964;42.144;24.730;2023-02-22T08:27:43;147083.94;;;22.25;24.88
5877;BME280;2964;42.144;24.730;2023-02-22T08:30:14;147111.88;;;22.36;25.05
5877;BME280;2964;42.144;24.730;2023-02-22T08:32:41;147023.09;;;22.00;25.09
5877;BME280;2964;42.144;24.730;2023-02-22T08:35:08;147026.91;;;22.02;24.79
5877;BME280;2964;42.144;24.730;2023-02-22T08:37:34;147215.78;;;22.78;24.19
5877;BME280;2964;42.144;24.730;2023-02-22T08:40:02;147073.81;;;22.21;24.58
5877;BME280;2964;42.144;24.730;2023-02-22T08:42:30;147094.13;;;22.29;24.96
5877;BME280;2964;42.144;24.730;2023-02-22T08:44:56;147290.59;;;23.08;24.09
5877;BME280;2964;42.144;24.730;2023-02-22T08:47:24;147247.47;;;22.91;24.35
5877;BME280;2964;42.144;24.730;2023-02-22T08:49:51;147397.09;;;23.51;23.84
5877;BME280;2964;42.144;24.730;2023-02-22T08:52:18;147408.53;;;23.56;23.45
5877;BME280;2964;42.144;24.730;2023-02-22T08:54:46;147332.44;;;23.25;23.37
5877;BME280;2964;42.144;24.730;2023-02-22T08:57:13;147184.09;;;22.65;24.21
5877;BME280;2964;42.144;24.730;2023-02-22T08:59:41;147326.13;;;23.23;24.08
5877;BME280;2964;42.144;24.730;2023-02-22T09:02:13;147516.41;;;24.00;23.37
5877;BME280;2964;42.144;24.730;2023-02-22T09:04:39;147824.84;;;25.24;22.38
5877;BME280;2964;42.144;24.730;2023-02-22T09:07:06;148048.41;;;26.15;21.35
5877;BME280;2964;42.144;24.730;2023-02-22T09:09:33;148289.91;;;27.12;20.59
5877;BME280;2964;42.144;24.730;2023-02-22T09:12:00;148674.13;;;28.67;18.97
5877;BME280;2964;42.144;24.730;2023-02-22T09:14:26;148521.44;;;28.06;19.37
5877;BME280;2964;42.144;24.730;2023-02-22T09:16:55;148479.44;;;27.89;19.14
5877;BME280;2964;42.144;24.730;2023-02-22T09:19:21;148545.59;;;28.16;19.01
5877;BME280;2964;42.144;24.730;2023-02-22T09:21:51;148875.25;;;29.49;18.30
5877;BME280;2964;42.144;24.730;2023-02-22T09:24:18;148781.03;;;29.11;17.86
5877;BME280;2964;42.144;24.730;2023-02-22T09:26:46;148913.47;;;29.64;18.10
5877;BME280;2964;42.144;24.730;2023-02-22T09:29:17;149198.81;;;30.79;17.37
5877;BME280;2964;42.144;24.730;2023-02-22T09:31:48;148593.94;;;28.35;18.55
5877;BME280;2964;42.144;24.730;2023-02-22T09:34:16;148632.09;;;28.50;18.15
5877;BME280;2964;42.144;24.730;2023-02-22T09:36:45;149020.44;;;30.07;17.45
5877;BME280;2964;42.144;24.730;2023-02-22T09:39:13;149146.56;;;30.58;17.43
5877;BME280;2964;42.144;24.730;2023-02-22T09:41:46;149525.22;;;32.10;15.82
5877;BME280;2964;42.144;24.730;2023-02-22T09:44:21;149168.22;;;30.67;17.14
5877;BME280;2964;42.144;24.730;2023-02-22T09:46:50;149415.53;;;31.66;15.90
5877;BME280;2964;42.144;24.730;2023-02-22T09:49:25;149767.56;;;33.08;15.41
5877;BME280;2964;42.144;24.730;2023-02-22T09:51:58;149964.16;;;33.87;15.06
5877;BME280;2964;42.144;24.730;2023-02-22T09:54:30;149243.47;;;30.97;16.02
5877;BME280;2964;42.144;24.730;2023-02-22T09:57:02;149145.28;;;30.57;16.45
5877;BME280;2964;42.144;24.730;2023-02-22T09:59:32;149093.09;;;30.36;17.03
5877;BME280;2964;42.144;24.730;2023-02-22T10:02:08;149396.41;;;31.59;16.25
5877;BME280;2964;42.144;24.730;2023-02-22T10:04:48;149691.03;;;32.77;15.49
5877;BME280;2964;42.144;24.730;2023-02-22T10:07:23;149802.09;;;33.22;15.05
5877;BME280;2964;42.144;24.730;2023-02-22T10:09:52;149807.19;;;33.24;15.03
5877;BME280;2964;42.144;24.730;2023-02-22T10:12:28;149588.97;;;32.36;15.70
5877;BME280;2964;42.144;24.730;2023-02-22T10:15:24;149323.72;;;31.29;15.72
5877;BME280;2964;42.144;24.730;2023-02-22T10:18:03;148599.03;;;28.37;18.26
5877;BME280;2964;42.144;24.730;2023-02-22T10:20:49;148021.75;;;26.04;20.29
5877;BME280;2964;42.144;24.730;2023-02-22T10:23:25;147543.00;;;24.11;22.45
5877;BME280;2964;42.144;24.730;2023-02-22T10:26:00;147328.63;;;23.24;23.16
5877;BME280;2964;42.144;24.730;2023-02-22T10:28:34;147289.34;;;23.08;23.55
5877;BME280;2964;42.144;24.730;2023-02-22T10:31:07;147246.19;;;22.90;24.02
5877;BME280;2964;42.144;24.730;2023-02-22T10:33:37;147152.41;;;22.52;24.64
5877;BME280;2964;42.144;24.730;2023-02-22T10:36:14;147160.00;;;22.55;24.91
5877;BME280;2964;42.144;24.730;2023-02-22T10:38:44;147096.69;;;22.30;24.57
5877;BME280;2964;42.144;24.730;2023-02-22T10:41:20;147018.03;;;21.98;25.06
5877;BME280;2964;42.144;24.730;2023-02-22T10:43:49;147023.09;;;22.00;25.22
5877;BME280;2964;42.144;24.730;2023-02-22T10:46:19;146934.47;;;21.64;24.71
5877;BME280;2964;42.144;24.730;2023-02-22T10:48:49;146931.91;;;21.63;25.23
5877;BME280;2964;42.144;24.730;2023-02-22T10:51:19;146926.84;;;21.61;25.39
5877;BME280;2964;42.144;24.730;2023-02-22T10:53:55;146935.72;;;21.65;25.52
5877;BME280;2964;42.144;24.730;2023-02-22T10:56:23;146855.91;;;21.32;25.83
5877;BME280;2964;42.144;24.730;2023-02-22T10:58:54;146728.03;;;20.80;25.83
5877;BME280;2964;42.144;24.730;2023-02-22T11:01:27;146840.69;;;21.26;25.98
5877;BME280;2964;42.144;24.730;2023-02-22T11:04:01;146829.31;;;21.21;25.94
5877;BME280;2964;42.144;24.730;2023-02-22T11:06:32;146886.31;;;21.45;25.52
5877;BME280;2964;42.144;24.730;2023-02-22T11:09:04;146878.69;;;21.42;25.82
5877;BME280;2964;42.144;24.730;2023-02-22T11:11:35;146876.16;;;21.40;25.50
5877;BME280;2964;42.144;24.730;2023-02-22T11:14:02;146862.22;;;21.35;25.76
5877;BME280;2964;42.144;24.730;2023-02-22T11:16:32;146901.53;;;21.51;25.79
5877;BME280;2964;42.144;24.730;2023-02-22T11:19:02;146900.25;;;21.50;25.15
5877;BME280;2964;42.144;24.730;2023-02-22T11:21:52;146885.00;;;21.44;25.14
5877;BME280;2964;42.144;24.730;2023-02-22T11:24:21;146845.75;;;21.28;24.92
5877;BME280;2964;42.144;24.730;2023-02-22T11:26:53;146878.69;;;21.42;25.01
5877;BME280;2964;42.144;24.730;2023-02-22T11:29:25;146888.88;;;21.46;24.98
5877;BME280;2964;42.144;24.730;2023-02-22T11:31:54;146747.03;;;20.88;25.03
5877;BME280;2964;42.144;24.730;2023-02-22T11:34:27;146825.50;;;21.20;24.89
5877;BME280;2964;42.144;24.730;2023-02-22T11:37:14;146820.44;;;21.18;24.69
5877;BME280;2964;42.144;24.730;2023-02-22T11:39:41;146807.78;;;21.13;24.54
5877;BME280;2964;42.144;24.730;2023-02-22T11:42:22;146834.38;;;21.24;23.96
5877;BME280;2964;42.144;24.730;2023-02-22T11:45:08;146800.16;;;21.10;24.05
5877;BME280;2964;42.144;24.730;2023-02-22T11:47:35;146803.97;;;21.11;24.20
5877;BME280;2964;42.144;24.730;2023-02-22T11:50:09;146839.44;;;21.26;24.62
5877;BME280;2964;42.144;24.730;2023-02-22T11:52:48;146844.47;;;21.28;24.27
5877;BME280;2964;42.144;24.730;2023-02-22T11:55:27;146858.41;;;21.33;24.69
5877;BME280;2964;42.144;24.730;2023-02-22T11:58:03;146864.78;;;21.36;24.16
5877;BME280;2964;42.144;24.730;2023-02-22T12:00:44;146864.78;;;21.36;24.62
5877;BME280;2964;42.144;24.730;2023-02-22T12:06:24;146830.56;;;21.22;24.32
5877;BME280;2964;42.144;24.730;2023-02-22T12:09:06;146850.84;;;21.30;23.78
5877;BME280;2964;42.144;24.730;2023-02-22T12:11:44;146857.16;;;21.33;23.71
5877;BME280;2964;42.144;24.730;2023-02-22T12:14:20;146839.44;;;21.26;24.03
5877;BME280;2964;42.144;24.730;2023-02-22T12:17:17;146822.94;;;21.19;24.39
5877;BME280;2964;42.144;24.730;2023-02-22T12:19:48;146831.81;;;21.23;24.19
5877;BME280;2964;42.144;24.730;2023-02-22T12:22:18;146843.22;;;21.27;24.28
5877;BME280;2964;42.144;24.730;2023-02-22T12:24:53;146834.38;;;21.24;24.18
5877;BME280;2964;42.144;24.730;2023-02-22T12:27:24;146839.44;;;21.26;24.38
5877;BME280;2964;42.144;24.730;2023-02-22T12:29:57;146853.34;;;21.31;23.98
5877;BME280;2964;42.144;24.730;2023-02-22T12:32:31;146829.31;;;21.21;24.55
5877;BME280;2964;42.144;24.730;2023-02-22T12:35:03;146824.25;;;21.19;24.87
5877;BME280;2964;42.144;24.730;2023-02-22T12:37:41;146843.22;;;21.27;24.71
5877;BME280;2964;42.144;24.730;2023-02-22T12:40:15;146866.03;;;21.36;24.89
5877;BME280;2964;42.144;24.730;2023-02-22T12:42:52;146881.19;;;21.43;24.73
5877;BME280;2964;42.144;24.730;2023-02-22T12:45:28;146831.81;;;21.23;24.83
5877;BME280;2964;42.144;24.730;2023-02-22T12:48:04;146840.69;;;21.26;24.90
5877;BME280;2964;42.144;24.730;2023-02-22T12:53:07;146830.56;;;21.22;24.31
5877;BME280;2964;42.144;24.730;2023-02-22T12:55:43;146825.50;;;21.20;24.67
5877;BME280;2964;42.144;24.730;2023-02-22T12:58:20;146814.09;;;21.15;24.77
5877;BME280;2964;42.144;24.730;2023-02-22T13:00:55;146798.91;;;21.09;24.72
5877;BME280;2964;42.144;24.730;2023-02-22T13:03:30;146816.63;;;21.16;24.55
5877;BME280;2964;42.144;24.730;2023-02-22T13:06:11;146812.84;;;21.15;24.84
5877;BME280;2964;42.144;24.730;2023-02-22T13:08:44;146776.13;;;21.00;25.52
5877;BME280;2964;42.144;24.730;2023-02-22T13:11:23;146807.78;;;21.13;25.23
5877;BME280;2964;42.144;24.730;2023-02-22T13:14:00;146822.94;;;21.19;25.33
5877;BME280;2964;42.144;24.730;2023-02-22T13:16:39;146777.38;;;21.00;25.64
5877;BME280;2964;42.144;24.730;2023-02-22T13:19:25;146774.88;;;20.99;25.50
5877;BME280;2964;42.144;24.730;2023-02-22T13:21:58;146731.81;;;20.82;25.87
5877;BME280;2964;42.144;24.730;2023-02-22T13:24:31;146702.72;;;20.70;25.67
5877;BME280;2964;42.144;24.730;2023-02-22T13:27:08;146817.88;;;21.17;25.26